createdAt,value
2019-02-26T00:02:02.730Z,31.50
2019-02-26T00:04:34.409Z,35.73
2019-02-26T00:07:03.263Z,34.75
2019-02-26T00:09:35.198Z,37.60
2019-02-26T00:12:04.156Z,34.30
2019-02-26T00:14:33.499Z,38.63
2019-02-26T00:17:06.219Z,31.57
2019-02-26T00:19:33.878Z,33.13
2019-02-26T00:22:03.205Z,36.25
2019-02-26T00:24:35.321Z,38.30
2019-02-26T00:27:05.553Z,35.92
2019-02-26T00:29:35.085Z,40.15
2019-02-26T00:32:04.648Z,37.35
2019-02-26T00:34:34.671Z,37.67
2019-02-26T00:37:06.316Z,31.48
2019-02-26T00:39:36.201Z,33.78
2019-02-26T00:42:07.372Z,37.98
2019-02-26T00:44:37.395Z,32.00
2019-02-26T00:47:08.858Z,31.27
2019-02-26T00:49:38.007Z,37.60
2019-02-26T00:52:08.714Z,37.53
2019-02-26T00:54:38.397Z,36.85
2019-02-26T00:57:08.722Z,33.30
2019-02-26T00:59:41.059Z,34.55
2019-02-26T01:02:09.862Z,41.08
2019-02-26T01:04:41.365Z,32.20
2019-02-26T01:07:10.466Z,36.70
2019-02-26T01:09:39.817Z,32.55
2019-02-26T01:12:11.340Z,30.75
2019-02-26T01:14:41.307Z,34.58
2019-02-26T01:17:12.597Z,31.87
2019-02-26T01:19:43.055Z,30.90
2019-02-26T01:22:12.639Z,34.50
2019-02-26T01:24:41.972Z,35.23
2019-02-26T01:27:12.301Z,34.58
2019-02-26T01:29:41.636Z,37.10
2019-02-26T01:32:13.196Z,38.83
2019-02-26T01:34:42.673Z,33.88
2019-02-26T01:37:13.297Z,30.57
2019-02-26T01:39:44.683Z,32.03
2019-02-26T01:42:17.371Z,34.75
2019-02-26T01:44:44.997Z,36.00
2019-02-26T01:47:14.329Z,33.33
2019-02-26T01:49:44.184Z,34.05
2019-02-26T01:52:15.182Z,34.95
2019-02-26T01:54:45.718Z,32.80
2019-02-26T01:57:17.249Z,37.65
2019-02-26T01:59:47.430Z,31.00
2019-02-26T02:02:18.121Z,32.17
2019-02-26T02:04:48.157Z,34.67
2019-02-26T02:07:18.955Z,35.05
2019-02-26T02:09:50.842Z,34.55
2019-02-26T02:12:19.787Z,33.55
2019-02-26T02:14:49.120Z,36.93
2019-02-26T02:17:18.472Z,42.05
2019-02-26T02:19:47.787Z,34.35
2019-02-26T02:22:19.138Z,36.20
2019-02-26T02:24:50.839Z,34.38
2019-02-26T02:27:22.214Z,38.95
2019-02-26T02:29:52.944Z,32.93
2019-02-26T02:32:24.135Z,37.33
2019-02-26T02:34:52.958Z,35.23
2019-02-26T02:37:24.732Z,37.28
2019-02-26T02:39:53.328Z,39.30
2019-02-26T02:42:22.661Z,35.90
2019-02-26T02:44:52.813Z,33.05
2019-02-26T02:47:25.048Z,38.78
2019-02-26T02:49:53.270Z,35.95
2019-02-26T02:52:24.230Z,34.23
2019-02-26T02:54:53.636Z,37.00
2019-02-26T02:57:24.304Z,35.65
2019-02-26T02:59:56.525Z,38.60
2019-02-26T03:02:25.117Z,37.48
2019-02-26T03:04:54.440Z,33.18
2019-02-26T03:07:26.719Z,34.18
2019-02-26T03:09:55.158Z,34.40
2019-02-26T03:12:24.591Z,36.33
2019-02-26T03:14:56.236Z,36.45
2019-02-26T03:17:25.327Z,32.35
2019-02-26T03:19:56.041Z,31.30
2019-02-26T03:22:25.809Z,33.33
2019-02-26T03:24:57.477Z,31.95
2019-02-26T03:27:30.569Z,35.38
2019-02-26T03:29:59.157Z,40.70
2019-02-26T03:32:28.182Z,34.53
2019-02-26T03:35:02.094Z,31.00
2019-02-26T03:37:29.350Z,34.58
2019-02-26T03:40:00.822Z,34.18
2019-02-26T03:42:33.249Z,33.05
2019-02-26T03:45:02.950Z,33.13
2019-02-26T03:47:34.691Z,34.83
2019-02-26T03:50:08.691Z,32.70
2019-02-26T03:52:37.281Z,35.60
2019-02-26T03:55:09.505Z,33.92
2019-02-26T03:57:43.640Z,35.80
2019-02-26T04:00:14.920Z,29.48
2019-02-26T04:05:14.875Z,32.00
2019-02-26T04:07:44.247Z,36.73
2019-02-26T04:10:14.014Z,31.00
2019-02-26T04:12:45.011Z,29.98
2019-02-26T04:15:16.009Z,30.80
2019-02-26T04:17:45.421Z,28.25
2019-02-26T04:20:15.985Z,33.90
2019-02-26T04:22:47.087Z,31.68
2019-02-26T04:25:35.472Z,30.97
2019-02-26T04:28:11.480Z,28.07
2019-02-26T04:30:59.120Z,33.33
2019-02-26T04:33:46.628Z,34.48
2019-02-26T04:36:24.880Z,33.02
2019-02-26T04:39:19.024Z,31.62
2019-02-26T04:42:11.345Z,31.42
2019-02-26T04:45:09.145Z,33.60
2019-02-26T04:48:01.662Z,33.45
2019-02-26T04:50:33.090Z,34.27
2019-02-26T04:53:05.021Z,34.23
2019-02-26T04:55:36.058Z,32.93
2019-02-26T04:58:04.728Z,34.80
2019-02-26T05:00:37.946Z,38.90
2019-02-26T05:03:07.868Z,34.23
2019-02-26T05:05:37.143Z,32.93
2019-02-26T05:08:09.271Z,36.90
2019-02-26T05:10:37.638Z,34.08
2019-02-26T05:13:09.518Z,39.75
2019-02-26T05:15:38.002Z,36.05
2019-02-26T05:18:07.661Z,34.33
2019-02-26T05:20:39.279Z,33.40
2019-02-26T05:23:08.142Z,34.10
2019-02-26T05:25:39.756Z,36.53
2019-02-26T05:28:10.039Z,36.28
2019-02-26T05:30:40.489Z,43.30
2019-02-26T05:33:10.561Z,41.53
2019-02-26T05:35:40.867Z,38.40
2019-02-26T05:38:10.921Z,37.28
2019-02-26T05:40:42.681Z,37.65
2019-02-26T05:43:11.283Z,40.98
2019-02-26T05:45:40.622Z,44.60
2019-02-26T05:48:10.231Z,45.40
2019-02-26T05:50:41.999Z,45.50
2019-02-26T05:53:13.254Z,48.40
2019-02-26T05:55:44.229Z,47.85
2019-02-26T05:58:15.655Z,48.60
2019-02-26T06:00:43.707Z,41.83
2019-02-26T06:03:16.334Z,41.55
2019-02-26T06:05:46.609Z,47.08
2019-02-26T06:08:15.416Z,41.13
2019-02-26T06:10:44.749Z,40.65
2019-02-26T06:13:15.710Z,42.17
2019-02-26T06:15:46.208Z,43.85
2019-02-26T06:18:15.536Z,42.85
2019-02-26T06:20:44.900Z,43.50
2019-02-26T06:23:14.479Z,46.70
2019-02-26T06:25:43.833Z,46.13
2019-02-26T06:28:15.385Z,42.80
2019-02-26T06:30:44.270Z,42.95
2019-02-26T06:33:13.972Z,50.15
2019-02-26T06:35:44.977Z,46.85
2019-02-26T06:38:14.400Z,43.58
2019-02-26T06:40:47.120Z,52.33
2019-02-26T06:43:14.759Z,43.13
2019-02-26T06:45:45.859Z,48.80
2019-02-26T06:48:19.326Z,44.33
2019-02-26T06:50:46.348Z,45.35
2019-02-26T06:53:16.661Z,45.95
2019-02-26T06:55:46.744Z,48.80
2019-02-26T06:58:20.551Z,45.48
2019-02-26T07:03:24.243Z,50.65
2019-02-26T07:05:51.073Z,48.10
2019-02-26T07:08:21.930Z,37.40
2019-02-26T07:10:52.713Z,49.33
2019-02-26T07:13:22.048Z,49.25
2019-02-26T07:15:51.384Z,48.23
2019-02-26T07:18:20.722Z,50.15
2019-02-26T07:20:52.585Z,49.50
2019-02-26T07:23:21.087Z,45.20
2019-02-26T07:25:50.666Z,46.15
2019-02-26T07:28:20.644Z,48.10
2019-02-26T07:30:51.028Z,41.70
2019-02-26T07:33:20.365Z,48.45
2019-02-26T07:35:49.705Z,45.63
2019-02-26T07:38:21.210Z,45.75
2019-02-26T07:40:51.217Z,52.65
2019-02-26T07:43:22.494Z,38.25
2019-02-26T07:45:51.591Z,46.85
2019-02-26T07:48:23.596Z,47.90
2019-02-26T07:50:51.951Z,46.53
2019-02-26T07:53:22.696Z,47.05
2019-02-26T07:55:52.319Z,48.38
2019-02-26T07:58:21.786Z,52.67
2019-02-26T08:00:52.180Z,50.80
2019-02-26T08:03:24.159Z,45.05
2019-02-26T08:05:52.807Z,45.08
2019-02-26T08:08:22.227Z,45.17
2019-02-26T08:10:53.133Z,42.98
2019-02-26T08:13:24.378Z,48.78
2019-02-26T08:15:55.109Z,39.53
2019-02-26T08:18:24.538Z,45.85
2019-02-26T08:20:55.540Z,42.48
2019-02-26T08:23:26.377Z,41.23
2019-02-26T08:25:57.794Z,42.10
2019-02-26T08:28:26.740Z,45.33
2019-02-26T08:30:57.270Z,46.80
2019-02-26T08:33:27.913Z,42.88
2019-02-26T08:35:57.593Z,44.20
2019-02-26T08:38:29.413Z,34.27
2019-02-26T08:40:57.968Z,41.53
2019-02-26T08:43:27.301Z,45.20
2019-02-26T08:45:56.634Z,41.05
2019-02-26T08:48:27.034Z,40.05
2019-02-26T08:51:00.910Z,36.55
2019-02-26T08:53:28.957Z,42.78
2019-02-26T08:55:59.669Z,39.95
2019-02-26T08:58:29.572Z,37.28
2019-02-26T09:00:58.901Z,42.03
2019-02-26T09:03:28.515Z,34.43
2019-02-26T09:06:10.199Z,32.90
2019-02-26T09:08:30.785Z,38.60
2019-02-26T09:11:00.851Z,31.95
2019-02-26T09:13:33.493Z,32.38
2019-02-26T09:16:03.031Z,36.98
2019-02-26T09:18:37.482Z,34.98
2019-02-26T09:21:04.577Z,35.00
2019-02-26T09:23:33.912Z,24.43
2019-02-26T09:26:05.162Z,27.27
2019-02-26T09:28:34.280Z,27.75
2019-02-26T09:31:04.715Z,29.67
2019-02-26T09:33:35.548Z,24.37
2019-02-26T09:36:05.674Z,29.05
2019-02-26T09:38:35.014Z,28.90
2019-02-26T09:41:04.343Z,33.10
2019-02-26T09:43:33.684Z,33.05
2019-02-26T09:46:04.030Z,32.23
2019-02-26T09:48:35.797Z,29.52
2019-02-26T09:51:07.018Z,40.67
2019-02-26T09:53:36.138Z,37.15
2019-02-26T09:56:05.462Z,28.92
2019-02-26T09:58:34.793Z,32.93
2019-02-26T10:01:06.278Z,34.23
2019-02-26T10:03:37.279Z,29.75
2019-02-26T10:06:06.247Z,35.25
2019-02-26T10:08:35.609Z,25.65
2019-02-26T10:11:05.920Z,28.70
2019-02-26T10:13:35.271Z,36.55
2019-02-26T10:16:06.433Z,30.48
2019-02-26T10:18:36.338Z,25.72
2019-02-26T10:21:08.295Z,34.53
2019-02-26T10:23:37.762Z,26.65
2019-02-26T10:26:08.418Z,23.80
2019-02-26T10:28:40.330Z,22.42
2019-02-26T10:31:09.786Z,21.87
2019-02-26T10:33:41.148Z,28.00
2019-02-26T10:36:11.213Z,21.80
2019-02-26T10:38:41.287Z,23.20
2019-02-26T10:41:10.617Z,24.07
2019-02-26T10:43:40.162Z,17.67
2019-02-26T10:46:09.408Z,22.50
2019-02-26T10:48:41.051Z,16.93
2019-02-26T10:51:09.770Z,22.70
2019-02-26T10:53:39.110Z,17.42
2019-02-26T10:56:08.717Z,19.23
2019-02-26T10:58:38.321Z,28.95
2019-02-26T11:01:09.594Z,18.10
2019-02-26T11:03:41.715Z,17.45
2019-02-26T11:06:12.894Z,15.75
2019-02-26T11:08:41.286Z,13.18
2019-02-26T11:11:13.060Z,14.68
2019-02-26T11:13:43.524Z,17.30
2019-02-26T11:16:17.449Z,17.80
2019-02-26T11:18:44.942Z,15.68
2019-02-26T11:21:15.047Z,14.05
2019-02-26T11:23:46.285Z,17.30
2019-02-26T11:26:18.095Z,14.55
2019-02-26T11:28:48.023Z,24.10
2019-02-26T11:31:20.470Z,21.90
2019-02-26T11:33:48.488Z,17.92
2019-02-26T11:36:17.856Z,27.70
2019-02-26T11:38:47.217Z,22.98
2019-02-26T11:41:16.847Z,25.52
2019-02-26T11:43:46.446Z,23.20
2019-02-26T11:46:15.806Z,19.77
2019-02-26T11:48:47.451Z,21.87
2019-02-26T11:51:17.705Z,28.15
2019-02-26T11:53:48.380Z,31.48
2019-02-26T11:56:20.732Z,26.45
2019-02-26T11:58:49.034Z,27.75
2019-02-26T12:01:18.735Z,28.40
2019-02-26T12:03:48.444Z,24.65
2019-02-26T12:06:17.896Z,19.40
2019-02-26T12:08:47.941Z,28.95
2019-02-26T12:11:20.416Z,30.70
2019-02-26T12:13:50.193Z,27.30
2019-02-26T12:16:22.667Z,27.50
2019-02-26T12:18:52.223Z,28.52
2019-02-26T12:21:21.672Z,28.40
2019-02-26T12:23:51.062Z,24.57
2019-02-26T12:26:22.222Z,38.25
2019-02-26T12:28:54.661Z,44.27
2019-02-26T12:31:25.313Z,39.98
2019-02-26T12:33:55.018Z,45.40
2019-02-26T12:36:26.481Z,55.03
2019-02-26T12:38:56.416Z,40.43
2019-02-26T12:41:26.685Z,39.73
2019-02-26T12:43:59.404Z,44.73
2019-02-26T12:46:28.244Z,38.40
2019-02-26T12:48:58.256Z,42.00
2019-02-26T12:51:31.178Z,40.03
2019-02-26T12:54:00.536Z,36.17
2019-02-26T12:56:32.949Z,50.43
2019-02-26T12:59:00.994Z,40.65
2019-02-26T13:01:33.112Z,49.00
2019-02-26T13:04:01.498Z,43.28
2019-02-26T13:06:30.857Z,42.85
2019-02-26T13:09:00.210Z,39.60
2019-02-26T13:11:29.627Z,40.90
2019-02-26T13:13:59.006Z,37.10
2019-02-26T13:16:31.007Z,32.38
2019-02-26T13:19:04.305Z,16.73
2019-02-26T13:21:31.626Z,38.80
2019-02-26T13:24:11.398Z,37.73
2019-02-26T13:26:36.222Z,33.18
2019-02-26T13:29:03.545Z,34.50
2019-02-26T13:31:35.902Z,35.33
2019-02-26T13:34:04.119Z,32.40
2019-02-26T13:36:36.340Z,26.57
2019-02-26T13:39:06.071Z,25.90
2019-02-26T13:41:39.054Z,32.53
2019-02-26T13:44:08.257Z,24.70
2019-02-26T13:46:37.919Z,22.35
2019-02-26T13:49:07.349Z,25.27
2019-02-26T13:51:36.741Z,27.10
2019-02-26T13:54:07.215Z,28.90
2019-02-26T13:56:36.692Z,24.30
2019-02-26T13:59:06.167Z,23.52
2019-02-26T14:01:35.590Z,22.40
2019-02-26T14:04:05.402Z,23.25
2019-02-26T14:06:34.760Z,30.43
2019-02-26T14:09:06.401Z,25.85
2019-02-26T14:11:37.376Z,23.38
2019-02-26T14:14:07.121Z,22.45
2019-02-26T14:16:36.523Z,21.90
2019-02-26T14:19:05.925Z,22.10
2019-02-26T14:21:35.369Z,22.42
2019-02-26T14:24:04.881Z,18.77
2019-02-26T14:26:34.767Z,21.62
2019-02-26T14:29:04.202Z,19.37
2019-02-26T14:31:33.639Z,15.28
2019-02-26T14:34:03.108Z,19.87
2019-02-26T14:36:32.479Z,17.60
2019-02-26T14:39:01.876Z,18.12
2019-02-26T14:41:32.873Z,16.50
2019-02-26T14:44:02.226Z,20.08
2019-02-26T14:46:31.713Z,20.40
2019-02-26T14:49:01.041Z,18.60
2019-02-26T14:51:30.473Z,17.27
2019-02-26T14:53:59.818Z,21.85
2019-02-26T14:56:29.291Z,17.57
2019-02-26T14:58:59.018Z,17.32
2019-02-26T15:01:28.444Z,18.48
2019-02-26T15:03:58.001Z,18.10
2019-02-26T15:06:27.357Z,17.12
2019-02-26T15:08:56.738Z,20.57
2019-02-26T15:11:26.104Z,20.77
2019-02-26T15:13:55.527Z,17.52
2019-02-26T15:16:24.869Z,17.85
2019-02-26T15:18:54.274Z,19.80
2019-02-26T15:21:23.705Z,16.32
2019-02-26T15:23:53.431Z,18.95
2019-02-26T15:26:22.854Z,17.87
2019-02-26T15:28:52.278Z,17.12
2019-02-26T15:31:22.007Z,15.80
2019-02-26T15:33:51.609Z,15.18
2019-02-26T15:36:21.325Z,14.15
2019-02-26T15:38:50.742Z,13.53
2019-02-26T15:41:20.105Z,11.70
2019-02-26T15:43:49.575Z,16.75
2019-02-26T15:46:18.990Z,14.95
2019-02-26T15:48:48.402Z,16.70
2019-02-26T15:51:20.121Z,12.98
2019-02-26T15:53:49.088Z,12.98
2019-02-26T15:56:18.466Z,17.35
2019-02-26T15:58:48.058Z,15.98
2019-02-26T16:01:17.450Z,14.53
2019-02-26T16:03:46.818Z,13.53
2019-02-26T16:06:16.450Z,15.32
2019-02-26T16:08:45.861Z,13.53
2019-02-26T16:11:15.192Z,11.85
2019-02-26T16:13:44.752Z,13.55
2019-02-26T16:16:14.102Z,15.60
2019-02-26T16:18:45.489Z,18.98
2019-02-26T16:21:18.618Z,15.93
2019-02-26T16:23:46.543Z,17.07
2019-02-26T16:26:16.297Z,13.43
2019-02-26T16:28:45.637Z,17.10
2019-02-26T16:31:15.057Z,16.73
2019-02-26T16:33:46.442Z,13.72
2019-02-26T16:36:15.626Z,14.58
2019-02-26T16:38:44.992Z,14.58
2019-02-26T16:41:14.362Z,14.05
2019-02-26T16:43:47.230Z,13.60
2019-02-26T16:46:16.500Z,16.03
2019-02-26T16:48:47.082Z,12.73
2019-02-26T16:51:16.630Z,12.85
2019-02-26T16:53:47.575Z,14.90
2019-02-26T16:56:17.190Z,22.77
2019-02-26T16:58:46.624Z,11.93
2019-02-26T17:01:16.147Z,13.15
2019-02-26T17:03:45.814Z,19.05
2019-02-26T17:06:15.512Z,15.83
2019-02-26T17:08:47.337Z,16.37
2019-02-26T17:11:15.951Z,21.15
2019-02-26T17:13:45.328Z,15.72
2019-02-26T17:16:15.010Z,15.90
2019-02-26T17:18:44.373Z,16.15
2019-02-26T17:21:13.723Z,18.05
2019-02-26T17:23:44.796Z,18.92
2019-02-26T17:26:14.195Z,20.65
2019-02-26T17:28:44.178Z,17.42
2019-02-26T17:31:13.600Z,17.98
2019-02-26T17:33:44.697Z,14.87
2019-02-26T17:36:16.705Z,19.67
2019-02-26T17:38:46.084Z,17.15
2019-02-26T17:41:15.505Z,15.15
2019-02-26T17:43:45.834Z,18.87
2019-02-26T17:46:15.244Z,15.65
2019-02-26T17:48:44.769Z,17.07
2019-02-26T17:51:14.106Z,19.87
2019-02-26T17:53:43.472Z,17.65
2019-02-26T17:56:13.057Z,18.17
2019-02-26T17:58:43.990Z,16.95
2019-02-26T18:01:13.503Z,20.77
2019-02-26T18:03:45.343Z,16.95
2019-02-26T18:06:13.874Z,18.90
2019-02-26T18:08:43.497Z,18.98
2019-02-26T18:11:12.859Z,20.60
2019-02-26T18:13:42.213Z,15.48
2019-02-26T18:16:11.571Z,19.95
2019-02-26T18:18:41.003Z,17.80
2019-02-26T18:21:10.356Z,19.77
2019-02-26T18:23:39.696Z,17.00
2019-02-26T18:26:09.062Z,19.32
2019-02-26T18:28:38.395Z,19.35
2019-02-26T18:31:07.972Z,17.90
2019-02-26T18:33:37.469Z,21.45
2019-02-26T18:36:06.824Z,19.70
2019-02-26T18:38:36.459Z,20.20
2019-02-26T18:41:06.020Z,20.45
2019-02-26T18:43:35.388Z,26.55
2019-02-26T18:46:04.724Z,18.60
2019-02-26T18:48:34.222Z,17.75
2019-02-26T18:51:03.805Z,24.55
2019-02-26T18:53:33.152Z,20.27
2019-02-26T18:56:04.309Z,20.62
2019-02-26T18:58:34.601Z,20.68
2019-02-26T19:01:03.955Z,19.17
2019-02-26T19:03:33.358Z,17.30
2019-02-26T19:06:03.621Z,17.23
2019-02-26T19:08:34.678Z,19.80
2019-02-26T19:11:04.589Z,20.90
2019-02-26T19:13:35.656Z,19.85
2019-02-26T19:16:05.146Z,17.80
2019-02-26T19:18:35.676Z,25.75
2019-02-26T19:21:05.490Z,20.70
2019-02-26T19:23:34.902Z,23.00
2019-02-26T19:26:04.241Z,20.65
2019-02-26T19:28:33.819Z,18.73
2019-02-26T19:31:03.143Z,24.05
2019-02-26T19:33:32.654Z,20.08
2019-02-26T19:36:01.985Z,19.60
2019-02-26T19:38:31.318Z,21.52
2019-02-26T19:41:12.372Z,22.17
2019-02-26T19:43:40.373Z,23.12
2019-02-26T19:46:09.692Z,21.68
2019-02-26T19:48:39.260Z,27.02
2019-02-26T19:51:08.595Z,27.20
2019-02-26T19:53:37.936Z,23.62
2019-02-26T19:56:07.263Z,25.05
2019-02-26T19:58:40.597Z,25.20
2019-02-26T20:01:07.634Z,26.17
2019-02-26T20:03:39.849Z,24.98
2019-02-26T20:06:08.001Z,28.45
2019-02-26T20:08:37.336Z,27.60
2019-02-26T20:11:06.665Z,26.40
2019-02-26T20:13:41.941Z,26.50
2019-02-26T20:16:07.275Z,28.30
2019-02-26T20:18:36.645Z,23.80
2019-02-26T20:21:05.981Z,27.25
2019-02-26T20:23:35.384Z,27.85
2019-02-26T20:26:04.710Z,26.05
2019-02-26T20:28:35.428Z,28.67
2019-02-26T20:31:05.295Z,28.90
2019-02-26T20:33:34.634Z,25.40
2019-02-26T20:36:03.966Z,31.65
2019-02-26T20:38:35.298Z,32.23
2019-02-26T20:41:04.857Z,35.50
2019-02-26T20:43:36.651Z,35.00
2019-02-26T20:46:05.270Z,30.32
2019-02-26T20:48:36.686Z,31.65
2019-02-26T20:51:05.627Z,33.95
2019-02-26T20:53:36.644Z,29.15
2019-02-26T20:56:05.972Z,27.42
2019-02-26T20:58:35.302Z,30.15
2019-02-26T21:01:04.637Z,28.98
2019-02-26T21:03:34.035Z,24.90
2019-02-26T21:06:03.432Z,30.52
2019-02-26T21:08:32.940Z,29.12
2019-02-26T21:11:02.272Z,29.40
2019-02-26T21:13:34.607Z,30.60
2019-02-26T21:16:02.628Z,32.75
2019-02-26T21:18:32.044Z,31.10
2019-02-26T21:21:01.623Z,28.45
2019-02-26T21:23:32.509Z,26.33
2019-02-26T21:26:01.879Z,26.93
2019-02-26T21:28:33.546Z,32.42
2019-02-26T21:31:02.329Z,26.50
2019-02-26T21:33:31.730Z,30.23
2019-02-26T21:36:01.090Z,33.53
2019-02-26T21:38:30.642Z,30.75
2019-02-26T21:40:59.978Z,35.28
2019-02-26T21:43:29.534Z,33.83
2019-02-26T21:45:58.889Z,29.15
2019-02-26T21:48:28.225Z,31.37
2019-02-26T21:50:57.557Z,33.90
2019-02-26T21:53:26.893Z,34.63
2019-02-26T21:55:56.229Z,32.13
2019-02-26T21:58:26.824Z,35.05
2019-02-26T22:00:56.732Z,33.10
2019-02-26T22:03:26.072Z,29.67
2019-02-26T22:05:55.394Z,37.05
2019-02-26T22:08:25.284Z,34.65
2019-02-26T22:10:54.530Z,35.05
2019-02-26T22:13:23.872Z,33.02
2019-02-26T22:15:53.200Z,32.50
2019-02-26T22:18:22.534Z,32.55
2019-02-26T22:20:51.864Z,33.53
2019-02-26T22:23:21.206Z,33.83
2019-02-26T22:25:52.546Z,34.23
2019-02-26T22:28:23.083Z,31.10
2019-02-26T22:30:55.716Z,38.13
2019-02-26T22:33:23.463Z,35.98
2019-02-26T22:35:52.796Z,37.85
2019-02-26T22:38:22.376Z,36.80
2019-02-26T22:40:51.702Z,29.55
2019-02-26T22:43:21.032Z,32.10
2019-02-26T22:45:50.638Z,36.88
2019-02-26T22:48:19.978Z,33.02
2019-02-26T22:50:49.528Z,32.53
2019-02-26T22:53:18.865Z,34.43
2019-02-26T22:55:49.804Z,33.35
2019-02-26T22:58:19.224Z,38.28
2019-02-26T23:01:13.757Z,29.75
2019-02-26T23:03:46.061Z,32.73
2019-02-26T23:06:16.021Z,34.08
2019-02-26T23:08:45.508Z,33.92
2019-02-26T23:11:15.175Z,33.53
2019-02-26T23:13:46.133Z,30.70
2019-02-26T23:16:18.538Z,34.83
2019-02-26T23:18:47.135Z,33.95
2019-02-26T23:21:16.871Z,31.60
2019-02-26T23:23:46.710Z,29.98
2019-02-26T23:26:16.210Z,30.57
2019-02-26T23:28:45.626Z,33.13
2019-02-26T23:31:16.873Z,31.82
2019-02-26T23:33:48.560Z,32.88
2019-02-26T23:36:17.329Z,32.45
2019-02-26T23:38:46.678Z,29.07
2019-02-26T23:41:16.276Z,30.62
2019-02-26T23:43:46.049Z,32.60
2019-02-26T23:46:15.395Z,32.20
2019-02-26T23:48:44.736Z,35.65
2019-02-26T23:51:14.063Z,35.33
2019-02-26T23:53:43.401Z,32.70
2019-02-26T23:56:12.781Z,34.08
2019-02-26T23:58:42.113Z,33.20
